createdAt,value
2018-08-06T00:00:40.398Z,52.95
2018-08-06T00:03:08.190Z,53.31
2018-08-06T00:05:35.874Z,52.78
2018-08-06T00:08:03.837Z,53.75
2018-08-06T00:10:31.491Z,53.94
2018-08-06T00:12:59.177Z,53.68
2018-08-06T00:15:26.783Z,54.38
2018-08-06T00:17:54.413Z,54.49
2018-08-06T00:20:22.055Z,54.24
2018-08-06T00:22:49.751Z,53.93
2018-08-06T00:25:17.912Z,53.74
2018-08-06T00:27:45.841Z,54.47
2018-08-06T00:30:14.482Z,54.59
2018-08-06T00:32:43.154Z,54.60
2018-08-06T00:35:11.299Z,54.80
2018-08-06T00:37:39.381Z,55.03
2018-08-06T00:40:08.270Z,54.87
2018-08-06T00:42:35.924Z,55.27
2018-08-06T00:45:04.446Z,54.83
2018-08-06T00:47:32.135Z,54.76
2018-08-06T00:50:00.266Z,54.37
2018-08-06T00:52:27.901Z,54.18
2018-08-06T00:54:55.577Z,53.81
2018-08-06T00:57:23.491Z,55.36
2018-08-06T00:59:51.119Z,54.69
2018-08-06T01:02:18.765Z,55.03
2018-08-06T01:04:46.424Z,55.17
2018-08-06T01:07:14.058Z,55.25
2018-08-06T01:09:41.705Z,54.46
2018-08-06T01:12:09.314Z,55.71
2018-08-06T01:14:36.932Z,55.62
2018-08-06T01:17:04.568Z,56.25
2018-08-06T01:19:32.214Z,56.15
2018-08-06T01:21:59.894Z,56.41
2018-08-06T01:24:27.510Z,55.96
2018-08-06T01:26:55.214Z,55.30
2018-08-06T01:29:22.881Z,54.43
2018-08-06T01:31:50.540Z,54.75
2018-08-06T01:34:18.146Z,54.83
2018-08-06T01:36:45.745Z,54.26
2018-08-06T01:39:13.413Z,54.48
2018-08-06T01:41:41.027Z,54.53
2018-08-06T01:44:08.859Z,54.57
2018-08-06T01:46:36.966Z,55.17
2018-08-06T01:49:04.786Z,55.16
2018-08-06T01:51:32.475Z,55.66
2018-08-06T01:54:00.351Z,55.94
2018-08-06T01:56:28.273Z,56.90
2018-08-06T01:58:56.049Z,57.33
2018-08-06T02:01:23.990Z,57.13
2018-08-06T02:03:51.646Z,57.26
2018-08-06T02:06:19.277Z,56.46
2018-08-06T02:08:46.902Z,56.41
2018-08-06T02:11:14.919Z,56.13
2018-08-06T02:13:42.524Z,55.81
2018-08-06T02:16:10.214Z,56.48
2018-08-06T02:18:37.833Z,56.30
2018-08-06T02:21:05.606Z,55.92
2018-08-06T02:23:33.221Z,56.60
2018-08-06T02:26:00.860Z,56.65
2018-08-06T02:28:28.521Z,56.76
2018-08-06T02:30:56.200Z,55.08
2018-08-06T02:33:23.908Z,55.33
2018-08-06T02:35:51.543Z,55.56
2018-08-06T02:38:19.166Z,55.57
2018-08-06T02:40:46.818Z,55.51
2018-08-06T02:43:14.434Z,55.21
2018-08-06T02:45:42.167Z,56.12
2018-08-06T02:48:09.813Z,55.71
2018-08-06T02:50:37.722Z,54.91
2018-08-06T02:53:05.382Z,55.73
2018-08-06T02:55:33.027Z,55.69
2018-08-06T02:58:00.690Z,55.43
2018-08-06T03:00:28.351Z,54.22
2018-08-06T03:02:55.993Z,54.56
2018-08-06T03:05:23.626Z,54.72
2018-08-06T03:07:51.338Z,54.85
2018-08-06T03:10:19.283Z,56.20
2018-08-06T03:12:47.131Z,55.74
2018-08-06T03:15:14.812Z,55.55
2018-08-06T03:17:42.507Z,55.85
2018-08-06T03:20:11.230Z,55.55
2018-08-06T03:22:39.190Z,55.14
2018-08-06T03:25:08.210Z,56.08
2018-08-06T03:27:35.929Z,56.21
2018-08-06T03:30:05.054Z,56.01
2018-08-06T03:32:32.646Z,56.31
2018-08-06T03:35:00.274Z,56.71
2018-08-06T03:37:27.983Z,56.98
2018-08-06T03:39:55.627Z,57.32
2018-08-06T03:42:23.247Z,57.91
2018-08-06T03:44:50.877Z,58.09
2018-08-06T03:47:18.479Z,57.82
2018-08-06T03:49:46.122Z,57.81
2018-08-06T03:52:13.771Z,57.58
2018-08-06T03:54:41.393Z,58.23
2018-08-06T03:57:09.023Z,57.67
2018-08-06T03:59:36.614Z,57.89
2018-08-06T04:02:04.273Z,58.13
2018-08-06T04:04:31.904Z,58.14
2018-08-06T04:06:59.523Z,57.87
2018-08-06T04:09:27.180Z,57.17
2018-08-06T04:11:54.793Z,57.24
2018-08-06T04:14:22.442Z,56.38
2018-08-06T04:16:50.076Z,56.87
2018-08-06T04:19:17.723Z,56.80
2018-08-06T04:21:45.653Z,57.43
2018-08-06T04:24:13.266Z,58.07
2018-08-06T04:26:40.865Z,58.01
2018-08-06T04:29:08.510Z,57.68
2018-08-06T04:31:36.634Z,57.85
2018-08-06T04:34:04.430Z,57.01
2018-08-06T04:36:32.806Z,57.30
2018-08-06T04:39:00.710Z,56.49
2018-08-06T04:41:28.382Z,56.70
2018-08-06T04:43:56.027Z,56.25
2018-08-06T04:46:23.678Z,55.66
2018-08-06T04:48:51.325Z,56.07
2018-08-06T04:51:20.011Z,55.68
2018-08-06T04:53:47.634Z,55.69
2018-08-06T04:56:15.286Z,55.60
2018-08-06T04:58:42.922Z,54.89
2018-08-06T05:01:10.522Z,54.71
2018-08-06T05:03:38.412Z,55.86
2018-08-06T05:06:06.026Z,55.17
2018-08-06T05:08:33.750Z,54.82
2018-08-06T05:11:01.483Z,55.52
2018-08-06T05:13:29.134Z,54.61
2018-08-06T05:15:56.792Z,54.73
2018-08-06T05:18:24.402Z,55.31
2018-08-06T05:20:52.103Z,55.75
2018-08-06T05:23:19.941Z,55.02
2018-08-06T05:25:47.552Z,55.10
2018-08-06T05:28:15.226Z,53.96
2018-08-06T05:30:42.927Z,53.62
2018-08-06T05:33:10.593Z,53.22
2018-08-06T05:35:38.281Z,52.58
2018-08-06T05:38:06.010Z,52.32
2018-08-06T05:40:33.701Z,51.91
2018-08-06T05:43:01.362Z,51.79
2018-08-06T05:45:29.106Z,51.62
2018-08-06T05:47:56.810Z,51.12
2018-08-06T05:50:24.486Z,50.14
2018-08-06T05:52:52.342Z,48.91
2018-08-06T05:55:20.022Z,48.63
2018-08-06T05:57:47.754Z,48.15
2018-08-06T06:00:16.818Z,47.53
2018-08-06T06:02:45.055Z,47.09
2018-08-06T06:05:12.808Z,47.21
2018-08-06T06:07:40.982Z,47.53
2018-08-06T06:10:09.696Z,46.66
2018-08-06T06:12:37.408Z,46.51
2018-08-06T06:15:07.732Z,46.88
2018-08-06T06:17:35.405Z,47.30
2018-08-06T06:20:03.612Z,46.64
2018-08-06T06:22:31.334Z,46.71
2018-08-06T06:24:58.982Z,46.19
2018-08-06T06:27:26.663Z,46.15
2018-08-06T06:29:54.600Z,45.50
2018-08-06T06:32:22.271Z,44.92
2018-08-06T06:34:50.116Z,44.03
2018-08-06T06:37:17.814Z,43.76
2018-08-06T06:39:45.556Z,42.85
2018-08-06T06:42:13.249Z,42.80
2018-08-06T06:44:40.957Z,42.43
2018-08-06T06:47:08.681Z,42.14
2018-08-06T06:49:36.427Z,41.31
2018-08-06T06:52:04.110Z,41.90
2018-08-06T06:54:31.887Z,41.12
2018-08-06T06:56:59.515Z,40.72
2018-08-06T06:59:27.278Z,40.07
2018-08-06T07:01:54.967Z,40.04
2018-08-06T07:04:22.648Z,38.35
2018-08-06T07:06:50.380Z,38.00
2018-08-06T07:09:18.094Z,37.89
2018-08-06T07:11:45.797Z,37.51
2018-08-06T07:14:13.525Z,38.42
2018-08-06T07:16:41.351Z,37.04
2018-08-06T07:19:09.047Z,36.00
2018-08-06T07:21:36.770Z,35.88
2018-08-06T07:24:04.484Z,34.95
2018-08-06T07:26:32.263Z,34.09
2018-08-06T07:28:59.975Z,33.61
2018-08-06T07:31:27.698Z,32.80
2018-08-06T07:33:55.379Z,32.22
2018-08-06T07:36:23.085Z,32.15
2018-08-06T07:38:50.865Z,32.21
2018-08-06T07:41:18.538Z,31.39
2018-08-06T07:43:46.238Z,30.55
2018-08-06T07:46:13.924Z,29.82
2018-08-06T07:48:41.663Z,29.44
2018-08-06T07:51:09.381Z,30.72
2018-08-06T07:53:37.077Z,28.36
2018-08-06T07:56:04.940Z,28.00
2018-08-06T07:58:32.634Z,27.18
2018-08-06T08:01:00.467Z,26.53
2018-08-06T08:03:28.218Z,26.77
2018-08-06T08:05:55.989Z,27.37
2018-08-06T08:08:23.698Z,26.98
2018-08-06T08:10:51.433Z,25.46
2018-08-06T08:13:19.138Z,24.74
2018-08-06T08:15:46.882Z,24.94
2018-08-06T08:18:14.574Z,25.76
2018-08-06T08:20:42.269Z,24.39
2018-08-06T08:23:10.265Z,24.35
2018-08-06T08:25:37.954Z,23.30
2018-08-06T08:28:05.713Z,24.11
2018-08-06T08:30:33.466Z,25.51
2018-08-06T08:33:01.540Z,24.27
2018-08-06T08:35:29.947Z,23.28
2018-08-06T08:37:57.915Z,22.01
2018-08-06T08:40:25.680Z,22.36
2018-08-06T08:42:53.394Z,22.72
2018-08-06T08:45:21.138Z,22.82
2018-08-06T08:47:48.875Z,22.16
2018-08-06T08:50:17.726Z,21.63
2018-08-06T08:52:45.449Z,21.72
2018-08-06T08:55:14.136Z,22.80
2018-08-06T08:57:42.015Z,23.08
2018-08-06T09:00:13.528Z,23.98
2018-08-06T09:02:42.175Z,24.29
2018-08-06T09:05:09.981Z,24.56
2018-08-06T09:07:38.097Z,24.88
2018-08-06T09:10:07.229Z,25.22
2018-08-06T09:12:35.081Z,24.01
2018-08-06T09:15:03.179Z,23.14
2018-08-06T09:17:31.233Z,22.65
2018-08-06T09:19:58.901Z,22.63
2018-08-06T09:22:26.611Z,22.43
2018-08-06T09:24:54.338Z,22.51
2018-08-06T09:27:22.035Z,22.69
2018-08-06T09:29:50.030Z,22.53
2018-08-06T09:32:17.730Z,21.75
2018-08-06T09:34:45.423Z,21.79
2018-08-06T09:37:13.171Z,21.47
2018-08-06T09:39:40.857Z,19.83
2018-08-06T09:42:08.558Z,19.84
2018-08-06T09:44:36.297Z,19.63
2018-08-06T09:47:04.020Z,21.84
2018-08-06T09:49:32.947Z,21.75
2018-08-06T09:52:00.745Z,21.02
2018-08-06T09:54:28.433Z,21.65
2018-08-06T09:56:56.185Z,20.07
2018-08-06T09:59:23.911Z,21.31
2018-08-06T10:01:55.351Z,22.08
2018-08-06T10:04:23.328Z,22.51
2018-08-06T10:06:51.039Z,22.09
2018-08-06T10:09:19.062Z,22.07
2018-08-06T10:11:47.059Z,22.48
2018-08-06T10:14:14.829Z,22.80
2018-08-06T10:16:42.586Z,20.50
2018-08-06T10:19:10.310Z,21.00
2018-08-06T10:21:38.060Z,21.94
2018-08-06T10:24:05.814Z,23.82
2018-08-06T10:26:33.526Z,24.38
2018-08-06T10:29:01.271Z,24.67
2018-08-06T10:31:28.986Z,24.46
2018-08-06T10:33:56.718Z,25.17
2018-08-06T10:36:24.732Z,25.43
2018-08-06T10:38:52.471Z,24.50
2018-08-06T10:41:20.257Z,25.66
2018-08-06T10:43:48.258Z,25.43
2018-08-06T10:46:16.042Z,24.75
2018-08-06T10:48:44.511Z,25.93
2018-08-06T10:51:12.218Z,23.88
2018-08-06T10:53:39.962Z,23.68
2018-08-06T10:56:07.724Z,24.58
2018-08-06T10:58:35.495Z,24.48
2018-08-06T11:01:03.174Z,24.73
2018-08-06T11:03:30.930Z,24.36
2018-08-06T11:05:58.629Z,21.69
2018-08-06T11:08:26.367Z,22.61
2018-08-06T11:10:54.096Z,22.00
2018-08-06T11:13:21.817Z,21.61
2018-08-06T11:15:50.237Z,21.09
2018-08-06T11:18:18.015Z,21.15
2018-08-06T11:20:45.732Z,22.39
2018-08-06T11:23:13.448Z,22.93
2018-08-06T11:25:41.134Z,23.45
2018-08-06T11:28:08.925Z,23.02
2018-08-06T11:30:36.664Z,24.22
2018-08-06T11:33:04.397Z,24.47
2018-08-06T11:35:32.165Z,24.75
2018-08-06T11:37:59.863Z,24.22
2018-08-06T11:40:27.543Z,23.38
2018-08-06T11:42:55.230Z,24.12
2018-08-06T11:45:23.029Z,24.24
2018-08-06T11:47:50.914Z,24.22
2018-08-06T11:50:18.670Z,23.14
2018-08-06T11:52:46.808Z,22.94
2018-08-06T11:55:14.490Z,22.75
2018-08-06T11:57:42.197Z,22.66
2018-08-06T12:00:12.987Z,22.41
2018-08-06T12:02:40.742Z,22.00
2018-08-06T12:05:08.484Z,22.19
2018-08-06T12:07:36.624Z,22.48
2018-08-06T12:10:05.274Z,22.49
2018-08-06T12:12:33.025Z,22.65
2018-08-06T12:15:00.759Z,22.61
2018-08-06T12:17:28.449Z,23.61
2018-08-06T12:19:56.154Z,23.19
2018-08-06T12:22:23.879Z,22.71
2018-08-06T12:24:51.629Z,22.55
2018-08-06T12:27:19.363Z,21.52
2018-08-06T12:29:47.016Z,22.09
2018-08-06T12:32:14.703Z,22.98
2018-08-06T12:34:42.635Z,23.04
2018-08-06T12:37:10.321Z,23.11
2018-08-06T12:39:38.050Z,22.92
2018-08-06T12:42:05.809Z,23.00
2018-08-06T12:44:33.556Z,23.08
2018-08-06T12:47:01.331Z,23.57
2018-08-06T12:49:29.041Z,23.75
2018-08-06T12:51:56.718Z,24.33
2018-08-06T12:54:24.445Z,23.93
2018-08-06T12:56:52.158Z,24.87
2018-08-06T12:59:20.362Z,24.42
2018-08-06T13:01:48.026Z,24.45
2018-08-06T13:04:15.733Z,24.59
2018-08-06T13:06:43.427Z,24.52
2018-08-06T13:09:11.147Z,24.11
2018-08-06T13:11:38.882Z,24.54
2018-08-06T13:14:07.013Z,24.39
2018-08-06T13:16:35.057Z,25.12
2018-08-06T13:19:02.774Z,24.55
2018-08-06T13:21:30.586Z,24.65
2018-08-06T13:23:58.269Z,23.76
2018-08-06T13:26:25.974Z,23.87
2018-08-06T13:28:53.637Z,24.69
2018-08-06T13:31:21.367Z,24.27
2018-08-06T13:33:49.030Z,24.93
2018-08-06T13:36:16.739Z,24.51
2018-08-06T13:38:44.411Z,23.93
2018-08-06T13:41:12.094Z,24.75
2018-08-06T13:43:39.757Z,24.87
2018-08-06T13:46:08.126Z,24.96
2018-08-06T13:48:35.823Z,25.37
2018-08-06T13:51:03.518Z,24.29
2018-08-06T13:53:31.369Z,24.13
2018-08-06T13:55:59.097Z,23.48
2018-08-06T13:58:26.841Z,23.24
2018-08-06T14:00:54.608Z,24.18
2018-08-06T14:03:22.313Z,23.98
2018-08-06T14:05:50.028Z,23.98
2018-08-06T14:08:17.771Z,24.39
2018-08-06T14:10:45.501Z,24.50
2018-08-06T14:13:13.197Z,24.31
2018-08-06T14:15:40.894Z,24.22
2018-08-06T14:18:08.584Z,23.92
2018-08-06T14:20:36.278Z,23.96
2018-08-06T14:23:03.977Z,24.67
2018-08-06T14:25:31.667Z,25.32
2018-08-06T14:28:00.466Z,24.33
2018-08-06T14:30:28.159Z,24.15
2018-08-06T14:32:55.886Z,24.13
2018-08-06T14:35:23.550Z,24.18
2018-08-06T14:37:51.309Z,24.08
2018-08-06T14:40:19.351Z,23.74
2018-08-06T14:42:47.378Z,24.00
2018-08-06T14:45:15.200Z,24.81
2018-08-06T14:47:42.939Z,23.85
2018-08-06T14:50:11.767Z,23.72
2018-08-06T14:52:39.494Z,23.87
2018-08-06T14:55:08.826Z,23.77
2018-08-06T14:57:37.725Z,23.44
2018-08-06T15:00:07.131Z,24.20
2018-08-06T15:02:34.839Z,24.48
2018-08-06T15:05:02.550Z,24.01
2018-08-06T15:07:30.306Z,24.49
2018-08-06T15:09:57.947Z,24.59
2018-08-06T15:12:25.964Z,24.37
2018-08-06T15:14:53.738Z,24.21
2018-08-06T15:17:21.464Z,24.30
2018-08-06T15:19:49.155Z,24.28
2018-08-06T15:22:16.884Z,24.82
2018-08-06T15:24:44.578Z,24.22
2018-08-06T15:27:12.374Z,25.02
2018-08-06T15:29:40.061Z,25.22
2018-08-06T15:32:08.216Z,24.66
2018-08-06T15:34:35.867Z,24.80
2018-08-06T15:37:03.987Z,24.23
2018-08-06T15:39:31.735Z,23.75
2018-08-06T15:41:59.447Z,23.54
2018-08-06T15:44:27.149Z,24.17
2018-08-06T15:46:54.810Z,23.71
2018-08-06T15:49:22.514Z,23.37
2018-08-06T15:51:50.190Z,24.01
2018-08-06T15:54:17.850Z,23.98
2018-08-06T15:56:45.542Z,23.47
2018-08-06T15:59:13.218Z,23.77
2018-08-06T16:01:40.906Z,24.31
2018-08-06T16:04:08.674Z,23.97
2018-08-06T16:06:36.368Z,24.42
2018-08-06T16:09:05.814Z,24.37
2018-08-06T16:11:33.552Z,24.53
2018-08-06T16:14:01.210Z,24.09
2018-08-06T16:16:28.927Z,24.90
2018-08-06T16:18:56.608Z,25.20
2018-08-06T16:21:24.510Z,25.43
2018-08-06T16:23:52.502Z,26.09
2018-08-06T16:26:20.216Z,26.00
2018-08-06T16:28:47.914Z,26.67
2018-08-06T16:31:15.692Z,25.52
2018-08-06T16:33:43.571Z,25.95
2018-08-06T16:36:11.263Z,26.08
2018-08-06T16:38:38.982Z,26.49
2018-08-06T16:41:06.734Z,26.36
2018-08-06T16:43:34.423Z,26.51
2018-08-06T16:46:02.206Z,26.79
2018-08-06T16:48:29.999Z,27.66
2018-08-06T16:50:57.743Z,27.41
2018-08-06T16:53:25.447Z,27.24
2018-08-06T16:55:53.161Z,27.01
2018-08-06T16:58:20.823Z,27.23
2018-08-06T17:00:48.615Z,27.77
2018-08-06T17:03:16.338Z,30.70
2018-08-06T17:05:44.046Z,32.68
2018-08-06T17:08:11.830Z,35.79
2018-08-06T17:10:39.711Z,36.85
2018-08-06T17:13:07.410Z,37.56
2018-08-06T17:15:35.145Z,38.73
2018-08-06T17:18:02.878Z,39.95
2018-08-06T17:20:30.622Z,39.52
2018-08-06T17:22:58.756Z,40.43
2018-08-06T17:25:26.506Z,42.95
2018-08-06T17:27:54.239Z,42.76
2018-08-06T17:30:21.950Z,39.89
2018-08-06T17:32:49.710Z,41.53
2018-08-06T17:35:17.439Z,41.36
2018-08-06T17:37:45.207Z,40.83
2018-08-06T17:40:14.516Z,40.06
2018-08-06T17:42:42.313Z,38.86
2018-08-06T17:45:11.663Z,39.74
2018-08-06T17:47:39.487Z,39.31
2018-08-06T17:50:08.033Z,38.34
2018-08-06T17:52:35.771Z,39.62
2018-08-06T17:55:03.500Z,38.82
2018-08-06T17:57:31.387Z,38.31
2018-08-06T17:59:59.108Z,38.88
2018-08-06T18:02:26.800Z,40.26
2018-08-06T18:04:55.545Z,40.33
2018-08-06T18:07:23.230Z,40.69
2018-08-06T18:09:50.928Z,39.51
2018-08-06T18:12:18.953Z,42.28
2018-08-06T18:14:46.623Z,46.84
2018-08-06T18:17:14.327Z,46.78
2018-08-06T18:19:42.046Z,44.75
2018-08-06T18:22:09.724Z,40.52
2018-08-06T18:24:37.440Z,40.32
2018-08-06T18:27:05.234Z,39.88
2018-08-06T18:29:33.061Z,40.76
2018-08-06T18:32:00.892Z,43.38
2018-08-06T18:34:28.617Z,45.46
2018-08-06T18:36:56.396Z,46.55
2018-08-06T18:39:24.030Z,45.89
2018-08-06T18:41:51.766Z,45.00
2018-08-06T18:44:19.446Z,44.19
2018-08-06T18:46:47.111Z,44.03
2018-08-06T18:49:15.180Z,45.14
2018-08-06T18:51:42.878Z,44.43
2018-08-06T18:54:10.571Z,44.71
2018-08-06T18:56:38.343Z,44.87
2018-08-06T18:59:06.342Z,45.29
2018-08-06T19:01:34.074Z,44.64
2018-08-06T19:04:01.881Z,44.48
2018-08-06T19:06:29.585Z,43.50
2018-08-06T19:08:57.345Z,44.31
2018-08-06T19:11:25.052Z,44.84
2018-08-06T19:13:58.777Z,44.93
2018-08-06T19:16:26.502Z,45.69
2018-08-06T19:19:00.201Z,45.90
2018-08-06T19:21:27.899Z,45.36
2018-08-06T19:24:01.183Z,46.14
2018-08-06T19:26:28.881Z,46.55
2018-08-06T19:28:56.624Z,48.10
2018-08-06T19:31:25.194Z,48.43
2018-08-06T19:33:53.355Z,49.09
2018-08-06T19:36:21.166Z,48.61
2018-08-06T19:38:48.930Z,48.49
2018-08-06T19:41:16.655Z,48.25
2018-08-06T19:43:44.609Z,47.85
2018-08-06T19:46:12.368Z,48.75
2018-08-06T19:48:40.146Z,47.63
2018-08-06T19:51:07.901Z,48.58
2018-08-06T19:53:35.685Z,48.00
2018-08-06T19:56:09.074Z,48.18
2018-08-06T19:58:36.830Z,48.44
2018-08-06T20:01:04.586Z,48.49
2018-08-06T20:03:32.349Z,48.80
2018-08-06T20:06:00.052Z,49.37
2018-08-06T20:08:27.839Z,49.87
2018-08-06T20:10:55.633Z,49.83
2018-08-06T20:13:23.530Z,50.41
2018-08-06T20:15:51.309Z,50.58
2018-08-06T20:18:19.932Z,50.64
2018-08-06T20:20:47.684Z,50.71
2018-08-06T20:23:15.399Z,50.48
2018-08-06T20:25:43.097Z,51.57
2018-08-06T20:28:10.807Z,51.86
2018-08-06T20:30:38.479Z,51.73
2018-08-06T20:33:06.223Z,51.56
2018-08-06T20:35:33.960Z,51.27
2018-08-06T20:38:01.667Z,50.86
2018-08-06T20:40:29.839Z,51.39
2018-08-06T20:42:57.564Z,51.58
2018-08-06T20:45:25.279Z,51.68
2018-08-06T20:47:53.011Z,51.54
2018-08-06T20:50:21.879Z,51.73
2018-08-06T20:52:50.893Z,51.79
2018-08-06T20:55:18.663Z,52.06
2018-08-06T20:57:46.779Z,51.56
2018-08-06T21:00:19.615Z,51.84
2018-08-06T21:02:48.267Z,52.55
2018-08-06T21:05:16.274Z,53.09
2018-08-06T21:07:44.022Z,53.05
2018-08-06T21:10:13.037Z,51.89
2018-08-06T21:12:40.778Z,51.64
2018-08-06T21:15:09.557Z,51.94
2018-08-06T21:17:37.645Z,51.31
2018-08-06T21:20:06.539Z,51.41
2018-08-06T21:22:34.296Z,51.42
2018-08-06T21:25:02.038Z,51.44
2018-08-06T21:27:29.781Z,51.30
2018-08-06T21:29:57.459Z,51.17
2018-08-06T21:32:25.174Z,50.69
2018-08-06T21:34:52.890Z,49.86
2018-08-06T21:37:20.627Z,48.98
2018-08-06T21:39:48.320Z,48.06
2018-08-06T21:42:16.401Z,47.60
2018-08-06T21:44:44.202Z,47.18
2018-08-06T21:47:11.871Z,47.07
2018-08-06T21:49:39.904Z,48.30
2018-08-06T21:52:07.621Z,48.60
2018-08-06T21:54:35.393Z,48.95
2018-08-06T21:57:03.142Z,49.81
2018-08-06T21:59:30.921Z,50.60
2018-08-06T22:01:58.594Z,51.49
2018-08-06T22:04:26.323Z,52.14
2018-08-06T22:06:54.059Z,52.35
2018-08-06T22:09:21.756Z,52.43
2018-08-06T22:11:49.508Z,53.42
2018-08-06T22:14:17.231Z,53.74
2018-08-06T22:16:44.946Z,53.69
2018-08-06T22:19:12.666Z,53.65
2018-08-06T22:21:40.370Z,53.42
2018-08-06T22:24:08.378Z,53.96
2018-08-06T22:26:36.446Z,53.91
2018-08-06T22:29:04.555Z,54.43
2018-08-06T22:31:32.282Z,54.55
2018-08-06T22:34:00.067Z,54.59
2018-08-06T22:36:27.663Z,55.54
2018-08-06T22:38:55.373Z,55.59
2018-08-06T22:41:23.849Z,55.66
2018-08-06T22:43:51.903Z,56.01
2018-08-06T22:46:19.821Z,56.27
2018-08-06T22:48:47.527Z,55.99
2018-08-06T22:51:15.222Z,55.79
2018-08-06T22:53:43.083Z,55.93
2018-08-06T22:56:11.277Z,56.01
2018-08-06T22:58:39.118Z,55.92
2018-08-06T23:01:07.527Z,56.01
2018-08-06T23:03:35.266Z,55.92
2018-08-06T23:06:03.039Z,55.87
2018-08-06T23:08:30.719Z,56.20
2018-08-06T23:10:58.754Z,55.62
2018-08-06T23:13:26.454Z,55.79
2018-08-06T23:15:54.186Z,55.62
2018-08-06T23:18:21.919Z,56.02
2018-08-06T23:20:49.605Z,56.21
2018-08-06T23:23:17.469Z,56.07
2018-08-06T23:25:45.150Z,56.02
2018-08-06T23:28:12.853Z,55.88
2018-08-06T23:30:40.655Z,55.89
2018-08-06T23:33:08.339Z,55.84
2018-08-06T23:35:36.042Z,56.17
2018-08-06T23:38:03.751Z,55.78
2018-08-06T23:40:31.447Z,56.12
2018-08-06T23:42:59.144Z,56.74
2018-08-06T23:45:26.857Z,57.15
2018-08-06T23:47:54.603Z,57.59
2018-08-06T23:50:22.246Z,57.76
2018-08-06T23:52:49.970Z,57.63
2018-08-06T23:55:18.050Z,57.48
2018-08-06T23:57:46.046Z,56.33
